createdAt,value
2023-05-06T00:00:09.623Z,0.90
2023-05-06T00:02:39.400Z,1.10
2023-05-06T00:05:07.257Z,0.90
2023-05-06T00:07:34.741Z,1.00
2023-05-06T00:10:01.800Z,1.10
2023-05-06T00:12:28.770Z,1.30
2023-05-06T00:14:55.876Z,0.80
2023-05-06T00:17:22.883Z,1.00
2023-05-06T00:19:49.945Z,0.90
2023-05-06T00:22:17.333Z,1.20
2023-05-06T00:24:44.506Z,1.10
2023-05-06T00:27:11.506Z,0.80
2023-05-06T00:29:38.630Z,0.80
2023-05-06T00:32:06.124Z,1.00
2023-05-06T00:34:33.225Z,0.80
2023-05-06T00:37:00.218Z,1.50
2023-05-06T00:39:27.192Z,1.00
2023-05-06T00:41:54.241Z,1.10
2023-05-06T00:44:21.548Z,0.90
2023-05-06T00:46:48.501Z,1.10
2023-05-06T00:49:15.632Z,1.10
2023-05-06T00:51:42.749Z,0.90
2023-05-06T00:54:09.703Z,0.90
2023-05-06T00:56:37.078Z,0.90
2023-05-06T00:59:04.468Z,0.90
2023-05-06T01:01:31.731Z,1.00
2023-05-06T01:03:59.457Z,1.00
2023-05-06T01:06:32.818Z,1.00
2023-05-06T01:09:13.069Z,1.00
2023-05-06T01:11:47.817Z,0.90
2023-05-06T01:14:23.269Z,0.90
2023-05-06T01:16:53.774Z,1.30
2023-05-06T01:19:42.315Z,1.10
2023-05-06T01:22:10.544Z,1.10
2023-05-06T01:29:32.991Z,0.90
2023-05-06T01:32:07.589Z,0.90
2023-05-06T01:34:46.619Z,0.90
2023-05-06T01:37:32.618Z,0.80
2023-05-06T01:40:00.498Z,0.90
2023-05-06T01:44:55.480Z,0.80
2023-05-06T01:49:49.437Z,1.40
2023-05-06T01:52:16.780Z,0.90
2023-05-06T01:54:44.984Z,1.00
2023-05-06T01:57:12.118Z,1.20
2023-05-06T01:59:39.241Z,1.00
2023-05-06T02:02:06.881Z,0.90
2023-05-06T02:04:34.080Z,0.90
2023-05-06T02:07:01.266Z,1.10
2023-05-06T02:09:28.333Z,1.10
2023-05-06T02:12:00.402Z,0.70
2023-05-06T02:14:27.435Z,1.40
2023-05-06T02:16:55.516Z,0.70
2023-05-06T02:19:22.599Z,0.90
2023-05-06T02:21:49.597Z,0.90
2023-05-06T02:24:16.661Z,1.10
2023-05-06T02:26:43.622Z,0.80
2023-05-06T02:29:10.794Z,1.00
2023-05-06T02:31:38.220Z,1.20
2023-05-06T02:34:05.615Z,1.00
2023-05-06T02:36:33.402Z,0.80
2023-05-06T02:39:00.407Z,1.10
2023-05-06T02:41:27.828Z,0.80
2023-05-06T02:43:54.896Z,0.80
2023-05-06T02:46:22.259Z,0.80
2023-05-06T02:48:49.434Z,0.90
2023-05-06T02:51:16.397Z,0.80
2023-05-06T02:53:43.554Z,0.90
2023-05-06T02:56:11.080Z,1.00
2023-05-06T02:58:38.186Z,1.00
2023-05-06T03:01:05.586Z,0.80
2023-05-06T03:03:33.473Z,0.80
2023-05-06T03:08:28.203Z,0.80
2023-05-06T03:13:23.442Z,0.50
2023-05-06T03:15:54.411Z,0.70
2023-05-06T03:18:21.998Z,0.70
2023-05-06T03:20:49.898Z,0.70
2023-05-06T03:23:17.115Z,0.80
2023-05-06T03:25:44.547Z,0.80
2023-05-06T03:28:12.043Z,0.80
2023-05-06T03:30:40.275Z,0.60
2023-05-06T03:35:35.327Z,0.70
2023-05-06T03:38:02.808Z,0.50
2023-05-06T03:40:36.242Z,0.50
2023-05-06T03:43:03.924Z,0.90
2023-05-06T03:45:31.044Z,0.70
2023-05-06T03:47:59.489Z,0.80
2023-05-06T03:50:27.473Z,0.70
2023-05-06T03:52:54.846Z,1.10
2023-05-06T03:55:23.887Z,0.90
2023-05-06T03:57:51.314Z,0.80
2023-05-06T04:02:46.878Z,0.90
2023-05-06T04:05:19.812Z,0.90
2023-05-06T04:07:47.436Z,0.80
2023-05-06T04:10:14.799Z,0.80
2023-05-06T04:12:43.477Z,0.70
2023-05-06T04:15:11.806Z,1.00
2023-05-06T04:17:39.247Z,1.00
2023-05-06T04:20:11.728Z,1.10
2023-05-06T04:22:39.614Z,1.00
2023-05-06T04:26:38.164Z,0.90
2023-05-06T04:29:05.180Z,0.90
2023-05-06T04:31:34.597Z,1.00
2023-05-06T04:34:04.170Z,0.90
2023-05-06T04:36:31.654Z,1.00
2023-05-06T04:39:10.253Z,0.90
2023-05-06T04:44:04.788Z,1.20
2023-05-06T04:46:33.858Z,1.00
2023-05-06T04:49:01.629Z,0.70
2023-05-06T04:51:29.165Z,1.00
2023-05-06T04:53:56.288Z,1.70
2023-05-06T04:56:23.269Z,0.80
2023-05-06T04:58:50.238Z,1.10
2023-05-06T05:01:18.853Z,1.00
2023-05-06T05:03:45.908Z,1.10
2023-05-06T05:06:13.387Z,1.30
2023-05-06T05:08:41.502Z,1.10
2023-05-06T05:11:08.918Z,1.00
2023-05-06T05:13:35.761Z,0.90
2023-05-06T05:16:03.810Z,0.80
2023-05-06T05:18:31.939Z,1.20
2023-05-06T05:21:03.483Z,0.80
2023-05-06T05:23:31.075Z,0.90
2023-05-06T05:25:58.635Z,0.80
2023-05-06T05:28:25.505Z,1.00
2023-05-06T05:30:54.282Z,0.80
2023-05-06T05:33:22.035Z,0.90
2023-05-06T05:35:48.832Z,0.80
2023-05-06T05:38:16.576Z,0.90
2023-05-06T05:40:43.928Z,0.90
2023-05-06T05:43:11.466Z,1.80
2023-05-06T05:45:39.333Z,1.90
2023-05-06T05:48:06.518Z,2.30
2023-05-06T05:50:35.184Z,1.60
2023-05-06T05:53:02.371Z,1.20
2023-05-06T05:55:30.397Z,1.20
2023-05-06T05:57:57.316Z,0.90
2023-05-06T06:00:25.014Z,0.90
2023-05-06T06:02:53.113Z,0.80
2023-05-06T06:05:20.640Z,0.80
2023-05-06T06:07:47.775Z,0.70
2023-05-06T06:10:14.886Z,0.60
2023-05-06T06:12:44.086Z,0.80
2023-05-06T06:15:11.807Z,0.80
2023-05-06T06:17:40.973Z,0.80
2023-05-06T06:20:08.966Z,0.90
2023-05-06T06:22:36.408Z,0.50
2023-05-06T06:25:03.744Z,0.60
2023-05-06T06:27:35.309Z,0.80
2023-05-06T06:30:04.693Z,0.70
2023-05-06T06:32:32.591Z,0.80
2023-05-06T06:34:59.556Z,1.00
2023-05-06T06:37:26.476Z,0.80
2023-05-06T06:39:53.226Z,1.00
2023-05-06T06:42:19.959Z,0.80
2023-05-06T06:44:59.231Z,0.80
2023-05-06T06:47:26.079Z,0.60
2023-05-06T06:49:52.907Z,0.70
2023-05-06T06:52:19.755Z,0.60
2023-05-06T06:54:46.702Z,0.80
2023-05-06T06:57:13.677Z,0.70
2023-05-06T06:59:40.953Z,0.80
2023-05-06T07:02:08.249Z,0.90
2023-05-06T07:04:35.201Z,0.70
2023-05-06T07:07:02.293Z,0.70
2023-05-06T07:09:29.260Z,0.70
2023-05-06T07:11:56.229Z,0.70
2023-05-06T07:14:25.256Z,0.70
2023-05-06T07:16:52.453Z,0.70
2023-05-06T07:19:19.719Z,0.70
2023-05-06T07:21:47.918Z,0.70
2023-05-06T07:24:14.884Z,0.80
2023-05-06T07:26:41.918Z,0.90
2023-05-06T07:29:08.748Z,1.00
2023-05-06T07:31:35.636Z,0.90
2023-05-06T07:34:02.951Z,0.50
2023-05-06T07:36:34.704Z,0.80
2023-05-06T07:39:01.872Z,0.90
2023-05-06T07:41:28.740Z,0.70
2023-05-06T07:43:55.958Z,0.70
2023-05-06T07:46:23.077Z,0.80
2023-05-06T07:48:50.090Z,0.50
2023-05-06T07:51:17.460Z,0.70
2023-05-06T07:53:44.861Z,1.00
2023-05-06T07:56:12.063Z,0.90
2023-05-06T07:58:39.118Z,0.80
2023-05-06T08:01:06.059Z,0.70
2023-05-06T08:03:33.165Z,0.70
2023-05-06T08:06:00.954Z,0.90
2023-05-06T08:08:27.979Z,0.70
2023-05-06T08:10:55.433Z,0.70
2023-05-06T08:13:23.441Z,1.10
2023-05-06T08:15:50.873Z,0.90
2023-05-06T08:18:22.357Z,0.90
2023-05-06T08:20:51.016Z,1.10
2023-05-06T08:23:18.112Z,1.00
2023-05-06T08:25:46.016Z,0.70
2023-05-06T08:28:13.259Z,0.70
2023-05-06T08:30:40.171Z,1.00
2023-05-06T08:33:06.978Z,1.10
2023-05-06T08:35:34.515Z,1.10
2023-05-06T08:38:01.700Z,1.10
2023-05-06T08:40:28.869Z,0.80
2023-05-06T08:42:57.300Z,0.70
2023-05-06T08:45:24.136Z,0.80
2023-05-06T08:47:51.652Z,0.90
2023-05-06T08:50:18.731Z,0.90
2023-05-06T08:52:45.986Z,0.70
2023-05-06T08:55:13.112Z,0.80
2023-05-06T08:57:40.064Z,0.80
2023-05-06T09:00:10.446Z,1.20
2023-05-06T09:02:40.550Z,0.80
2023-05-06T09:05:10.459Z,1.00
2023-05-06T09:07:39.505Z,1.00
2023-05-06T09:10:13.103Z,1.20
2023-05-06T09:12:40.583Z,1.00
2023-05-06T09:15:09.082Z,1.00
2023-05-06T09:17:36.552Z,0.90
2023-05-06T09:20:05.808Z,0.70
2023-05-06T09:22:33.496Z,0.70
2023-05-06T09:25:00.758Z,1.10
2023-05-06T09:27:28.696Z,0.80
2023-05-06T09:32:38.167Z,0.70
2023-05-06T09:35:08.868Z,1.00
2023-05-06T09:37:36.257Z,0.70
2023-05-06T09:40:03.442Z,0.90
2023-05-06T09:42:30.911Z,0.90
2023-05-06T09:45:01.348Z,0.90
2023-05-06T09:47:33.765Z,0.80
2023-05-06T09:50:01.764Z,0.90
2023-05-06T09:52:28.937Z,1.20
2023-05-06T09:54:55.853Z,0.90
2023-05-06T09:57:23.157Z,0.80
2023-05-06T09:59:51.710Z,1.10
2023-05-06T10:02:19.306Z,0.90
2023-05-06T10:04:46.602Z,1.00
2023-05-06T10:07:13.629Z,0.90
2023-05-06T10:09:40.803Z,1.20
2023-05-06T10:12:08.317Z,0.70
2023-05-06T10:14:38.262Z,0.70
2023-05-06T10:17:08.691Z,1.00
2023-05-06T10:19:36.045Z,1.10
2023-05-06T10:22:07.893Z,1.10
2023-05-06T10:24:41.205Z,0.90
2023-05-06T10:27:08.153Z,0.90
2023-05-06T10:29:35.639Z,0.90
2023-05-06T10:32:03.577Z,0.90
2023-05-06T10:34:32.651Z,1.10
2023-05-06T10:36:59.651Z,1.10
2023-05-06T10:39:26.567Z,1.00
2023-05-06T10:41:53.650Z,1.10
2023-05-06T10:44:57.012Z,1.00
2023-05-06T10:47:23.981Z,0.80
2023-05-06T10:50:23.099Z,1.00
2023-05-06T10:52:55.059Z,1.00
2023-05-06T10:55:32.320Z,1.00
2023-05-06T10:58:02.254Z,1.10
2023-05-06T11:00:33.291Z,0.80
2023-05-06T11:03:07.479Z,0.90
2023-05-06T11:05:48.437Z,1.20
2023-05-06T11:08:24.511Z,1.20
2023-05-06T11:10:54.505Z,0.90
2023-05-06T11:13:29.558Z,0.80
2023-05-06T11:15:57.089Z,1.10
2023-05-06T11:18:24.386Z,0.90
2023-05-06T11:21:01.987Z,1.00
2023-05-06T11:23:41.354Z,1.10
2023-05-06T11:26:11.729Z,1.50
2023-05-06T11:28:45.330Z,1.00
2023-05-06T11:31:13.243Z,1.60
2023-05-06T11:36:17.467Z,1.00
2023-05-06T11:38:53.678Z,1.40
2023-05-06T11:41:22.341Z,1.00
2023-05-06T11:43:50.189Z,1.30
2023-05-06T11:46:18.285Z,1.20
2023-05-06T11:48:45.687Z,1.20
2023-05-06T11:51:12.591Z,1.40
2023-05-06T11:53:40.021Z,1.60
2023-05-06T11:56:07.249Z,1.30
2023-05-06T11:58:34.195Z,1.40
2023-05-06T12:01:02.447Z,1.10
2023-05-06T12:03:31.015Z,1.60
2023-05-06T12:05:58.554Z,1.40
2023-05-06T12:08:31.268Z,1.20
2023-05-06T12:11:02.612Z,1.50
2023-05-06T12:13:30.947Z,1.10
2023-05-06T12:15:58.682Z,1.20
2023-05-06T12:20:56.117Z,1.20
2023-05-06T12:23:23.510Z,1.40
2023-05-06T12:26:03.337Z,1.70
2023-05-06T12:28:31.053Z,1.30
2023-05-06T12:30:57.909Z,1.40
2023-05-06T12:33:25.026Z,1.70
2023-05-06T12:35:54.165Z,1.60
2023-05-06T12:38:20.894Z,1.50
2023-05-06T12:40:54.093Z,1.50
2023-05-06T12:43:30.792Z,1.40
2023-05-06T12:46:05.821Z,1.90
2023-05-06T12:48:33.210Z,1.70
2023-05-06T12:51:02.100Z,2.00
2023-05-06T12:53:33.784Z,2.00
2023-05-06T12:56:00.810Z,2.00
2023-05-06T12:58:27.760Z,2.00
2023-05-06T13:00:54.597Z,2.10
2023-05-06T13:03:22.144Z,2.20
2023-05-06T13:05:51.190Z,1.90
2023-05-06T13:08:18.894Z,1.90
2023-05-06T13:10:46.235Z,2.30
2023-05-06T13:13:13.274Z,1.80
2023-05-06T13:15:40.758Z,2.00
2023-05-06T13:18:08.301Z,1.70
2023-05-06T13:20:36.076Z,2.10
2023-05-06T13:25:30.461Z,1.80
2023-05-06T13:27:57.573Z,1.50
2023-05-06T13:30:24.496Z,1.70
2023-05-06T13:32:51.928Z,2.10
2023-05-06T13:35:18.717Z,1.70
2023-05-06T13:37:45.469Z,1.60
2023-05-06T13:40:13.241Z,1.70
2023-05-06T13:45:07.878Z,1.50
2023-05-06T13:47:37.282Z,1.30
2023-05-06T13:50:05.203Z,1.60
2023-05-06T13:52:32.935Z,1.90
2023-05-06T13:55:04.366Z,2.40
2023-05-06T13:57:32.590Z,1.60
2023-05-06T13:59:59.462Z,1.80
2023-05-06T14:02:26.528Z,3.80
2023-05-06T14:04:54.661Z,6.50
2023-05-06T14:07:21.718Z,5.80
2023-05-06T14:09:48.736Z,3.60
2023-05-06T14:12:15.679Z,2.10
2023-05-06T14:14:42.679Z,1.90
2023-05-06T14:17:09.736Z,1.60
2023-05-06T14:19:36.525Z,2.50
2023-05-06T14:22:03.597Z,3.00
2023-05-06T14:24:30.726Z,1.70
2023-05-06T14:26:57.730Z,4.40
2023-05-06T14:29:24.980Z,4.20
2023-05-06T14:31:53.171Z,2.60
2023-05-06T14:34:20.331Z,14.80
2023-05-06T14:36:47.280Z,8.20
2023-05-06T14:39:14.330Z,4.60
2023-05-06T14:41:41.289Z,3.80
2023-05-06T14:44:08.146Z,2.40
2023-05-06T14:46:35.557Z,1.90
2023-05-06T14:49:02.396Z,1.50
2023-05-06T14:51:29.655Z,1.40
2023-05-06T14:53:56.624Z,1.60
2023-05-06T14:56:23.701Z,1.70
2023-05-06T14:58:51.098Z,1.20
2023-05-06T15:01:18.080Z,1.40
2023-05-06T15:03:45.084Z,1.20
2023-05-06T15:06:12.187Z,1.40
2023-05-06T15:08:39.246Z,1.50
2023-05-06T15:11:06.023Z,0.90
2023-05-06T15:13:33.266Z,1.00
2023-05-06T15:16:00.208Z,1.20
2023-05-06T15:18:28.456Z,1.10
2023-05-06T15:20:58.229Z,1.30
2023-05-06T15:23:25.335Z,1.30
2023-05-06T15:25:52.043Z,1.40
2023-05-06T15:28:19.012Z,1.00
2023-05-06T15:30:45.869Z,1.10
2023-05-06T15:33:12.782Z,1.10
2023-05-06T15:35:39.882Z,1.00
2023-05-06T15:38:06.700Z,1.20
2023-05-06T15:40:34.166Z,0.90
2023-05-06T15:43:01.071Z,1.10
2023-05-06T15:45:28.110Z,1.00
2023-05-06T15:47:55.668Z,1.20
2023-05-06T15:50:32.963Z,1.20
2023-05-06T15:53:01.490Z,1.20
2023-05-06T15:55:29.083Z,1.50
2023-05-06T15:57:57.358Z,1.20
2023-05-06T16:00:25.504Z,1.00
2023-05-06T16:02:52.746Z,1.10
2023-05-06T16:05:19.568Z,1.40
2023-05-06T16:07:46.709Z,1.30
2023-05-06T16:10:13.798Z,0.90
2023-05-06T16:12:41.456Z,1.10
2023-05-06T16:15:09.125Z,1.30
2023-05-06T16:17:37.426Z,1.20
2023-05-06T16:20:05.327Z,1.30
2023-05-06T16:22:32.441Z,1.30
2023-05-06T16:24:59.317Z,1.00
2023-05-06T16:27:29.812Z,1.10
2023-05-06T16:29:56.635Z,1.20
2023-05-06T16:32:23.915Z,1.20
2023-05-06T16:34:51.202Z,1.30
2023-05-06T16:37:18.177Z,1.40
2023-05-06T16:42:23.457Z,1.10
2023-05-06T16:44:51.788Z,1.50
2023-05-06T16:47:23.523Z,1.30
2023-05-06T16:49:51.264Z,1.30
2023-05-06T16:52:19.090Z,1.50
2023-05-06T16:54:46.105Z,1.40
2023-05-06T16:57:13.513Z,1.80
2023-05-06T16:59:40.552Z,1.60
2023-05-06T17:02:07.840Z,1.80
2023-05-06T17:04:35.198Z,1.30
2023-05-06T17:07:02.376Z,1.70
2023-05-06T17:09:29.870Z,1.80
2023-05-06T17:11:57.215Z,1.40
2023-05-06T17:14:24.347Z,1.40
2023-05-06T17:16:52.288Z,1.00
2023-05-06T17:19:19.751Z,1.10
2023-05-06T17:21:47.081Z,1.20
2023-05-06T17:24:14.233Z,2.00
2023-05-06T17:26:42.084Z,2.10
2023-05-06T17:29:09.068Z,2.10
2023-05-06T17:31:36.037Z,2.30
2023-05-06T17:34:04.065Z,2.40
2023-05-06T17:36:31.837Z,3.00
2023-05-06T17:39:06.077Z,4.00
2023-05-06T17:41:33.778Z,4.30
2023-05-06T17:44:01.158Z,4.70
2023-05-06T17:46:28.434Z,4.00
2023-05-06T17:48:55.712Z,2.80
2023-05-06T17:51:23.020Z,2.40
2023-05-06T17:53:50.104Z,2.70
2023-05-06T17:56:17.295Z,2.90
2023-05-06T17:58:44.347Z,2.20
2023-05-06T18:01:11.882Z,2.30
2023-05-06T18:03:39.655Z,1.80
2023-05-06T18:08:34.061Z,1.70
2023-05-06T18:11:01.386Z,1.80
2023-05-06T18:13:28.404Z,1.50
2023-05-06T18:15:55.685Z,1.60
2023-05-06T18:18:22.871Z,1.60
2023-05-06T18:20:50.283Z,2.00
2023-05-06T18:23:17.431Z,1.60
2023-05-06T18:25:44.508Z,2.00
2023-05-06T18:28:12.273Z,1.80
2023-05-06T18:30:39.302Z,1.90
2023-05-06T18:33:06.427Z,2.10
2023-05-06T18:35:33.836Z,2.10
2023-05-06T18:38:01.174Z,2.40
2023-05-06T18:40:28.590Z,2.40
2023-05-06T18:42:56.719Z,2.30
2023-05-06T18:47:51.836Z,2.30
2023-05-06T18:50:18.846Z,2.00
2023-05-06T18:52:46.212Z,2.00
2023-05-06T18:55:13.498Z,1.80
2023-05-06T18:57:40.778Z,2.00
2023-05-06T19:00:08.989Z,2.10
2023-05-06T19:02:36.283Z,2.30
2023-05-06T19:05:03.567Z,2.00
2023-05-06T19:07:30.688Z,1.80
2023-05-06T19:09:57.649Z,1.90
2023-05-06T19:12:24.854Z,1.80
2023-05-06T19:14:52.214Z,2.10
2023-05-06T19:17:19.751Z,1.80
2023-05-06T19:19:49.315Z,1.80
2023-05-06T19:22:16.542Z,1.80
2023-05-06T19:24:43.694Z,1.70
2023-05-06T19:27:10.821Z,1.60
2023-05-06T19:29:38.127Z,1.60
2023-05-06T19:32:05.767Z,1.70
2023-05-06T19:34:32.758Z,1.80
2023-05-06T19:36:59.860Z,1.80
2023-05-06T19:39:27.002Z,1.80
2023-05-06T19:41:55.774Z,1.90
2023-05-06T19:44:22.910Z,1.90
2023-05-06T19:46:52.478Z,1.60
2023-05-06T19:49:19.564Z,1.70
2023-05-06T19:51:46.633Z,1.90
2023-05-06T19:54:13.901Z,1.70
2023-05-06T19:56:40.958Z,2.10
2023-05-06T19:59:08.122Z,1.80
2023-05-06T20:01:35.275Z,1.80
2023-05-06T20:04:02.518Z,1.90
2023-05-06T20:06:31.532Z,1.70
2023-05-06T20:08:58.550Z,1.90
2023-05-06T20:11:25.916Z,1.80
2023-05-06T20:13:53.292Z,1.80
2023-05-06T20:16:20.385Z,2.00
2023-05-06T20:18:47.872Z,1.50
2023-05-06T20:21:17.868Z,2.00
2023-05-06T20:23:44.893Z,1.60
2023-05-06T20:26:12.277Z,1.70
2023-05-06T20:28:39.551Z,1.60
2023-05-06T20:31:07.008Z,2.20
2023-05-06T20:33:34.042Z,1.80
2023-05-06T20:36:01.199Z,2.10
2023-05-06T20:38:30.240Z,2.10
2023-05-06T20:40:58.991Z,1.80
2023-05-06T20:43:26.264Z,2.10
2023-05-06T20:45:53.270Z,1.90
2023-05-06T20:48:20.514Z,1.70
2023-05-06T20:50:47.665Z,2.10
2023-05-06T20:53:15.016Z,2.00
2023-05-06T20:55:42.172Z,2.00
2023-05-06T20:58:09.317Z,2.10
2023-05-06T21:00:36.438Z,2.10
2023-05-06T21:03:03.584Z,2.00
2023-05-06T21:05:30.751Z,1.80
2023-05-06T21:07:57.828Z,2.00
2023-05-06T21:10:24.824Z,1.70
2023-05-06T21:12:51.938Z,2.20
2023-05-06T21:15:19.521Z,2.30
2023-05-06T21:17:46.979Z,1.70
2023-05-06T21:22:41.252Z,2.00
2023-05-06T21:25:09.080Z,2.00
2023-05-06T21:27:36.707Z,1.70
2023-05-06T21:30:03.947Z,1.90
2023-05-06T21:32:33.308Z,1.70
2023-05-06T21:35:03.804Z,1.60
2023-05-06T21:37:30.772Z,2.00
2023-05-06T21:39:58.135Z,1.90
2023-05-06T21:42:25.161Z,1.60
2023-05-06T21:44:52.355Z,1.60
2023-05-06T21:47:19.364Z,2.00
2023-05-06T21:49:46.406Z,1.70
2023-05-06T21:52:13.809Z,1.90
2023-05-06T21:54:40.830Z,1.60
2023-05-06T21:57:09.221Z,1.70
2023-05-06T21:59:36.391Z,1.70
2023-05-06T22:02:03.736Z,1.80
2023-05-06T22:04:31.190Z,1.60
2023-05-06T22:06:58.247Z,1.70
2023-05-06T22:09:25.290Z,1.60
2023-05-06T22:11:52.386Z,2.10
2023-05-06T22:14:21.903Z,1.70
2023-05-06T22:16:52.860Z,1.70
2023-05-06T22:19:20.372Z,1.40
2023-05-06T22:21:47.706Z,1.70
2023-05-06T22:24:14.964Z,1.80
2023-05-06T22:26:42.525Z,1.70
2023-05-06T22:29:09.547Z,1.90
2023-05-06T22:31:36.955Z,1.70
2023-05-06T22:34:04.906Z,1.80
2023-05-06T22:39:01.994Z,1.20
2023-05-06T22:41:30.325Z,1.70
2023-05-06T22:43:57.527Z,1.30
2023-05-06T22:46:24.702Z,1.60
2023-05-06T22:48:51.934Z,1.70
2023-05-06T22:51:20.491Z,1.90
2023-05-06T22:53:48.116Z,1.60
2023-05-06T22:56:15.395Z,1.50
2023-05-06T22:58:42.671Z,1.50
2023-05-06T23:01:09.786Z,1.40
2023-05-06T23:03:36.922Z,1.70
2023-05-06T23:06:06.283Z,1.60
2023-05-06T23:08:33.350Z,1.70
2023-05-06T23:11:00.887Z,1.70
2023-05-06T23:13:27.974Z,1.70
2023-05-06T23:15:55.064Z,1.50
2023-05-06T23:18:22.141Z,1.80
2023-05-06T23:20:49.165Z,1.70
2023-05-06T23:23:16.211Z,1.60
2023-05-06T23:25:43.249Z,1.70
2023-05-06T23:28:10.496Z,1.30
2023-05-06T23:30:37.719Z,1.50
2023-05-06T23:33:04.738Z,1.40
2023-05-06T23:35:32.544Z,1.70
2023-05-06T23:37:59.559Z,1.50
2023-05-06T23:40:26.674Z,1.30
2023-05-06T23:42:53.688Z,1.60
2023-05-06T23:45:20.609Z,1.60
2023-05-06T23:47:48.081Z,1.90
2023-05-06T23:50:15.168Z,1.40
2023-05-06T23:52:42.320Z,1.90
2023-05-06T23:55:09.938Z,1.30
2023-05-06T23:57:37.169Z,1.60
